Time;durP1;ratioP1;P1;durP2;ratioP2;P2;SDS_P1;SDS_P2;PMS_P1;PMS_P2;Temp;Humidity;BMP_temperature;BMP_pressure;BME280_temperature;BME280_humidity;BME280_pressure;Samples;Min_cycle;Max_cycle;Signal;HPM_P1;HPM_P2
2022/11/26 00:00:56;;;;;;;;;30.75;23.75;;;;;12.19;64.60;102337.53;5055862;28;45466;-61
2022/11/26 00:03:22;;;;;;;;;24.00;17.00;;;;;12.10;64.33;102327.31;5058654;28;45289;-62
2022/11/26 00:05:51;;;;;;;;;22.75;16.75;;;;;11.92;64.36;102297.94;5055957;28;45386;-61
2022/11/26 00:08:26;;;;;;;;;23.00;19.50;;;;;12.12;65.03;102339.03;5061660;28;46314;-61
2022/11/26 00:10:53;;;;;;;;;35.25;27.75;;;;;12.11;64.42;102342.56;5059304;28;45210;-61
2022/11/26 00:13:21;;;;;;;;;17.75;17.00;;;;;12.09;65.04;102349.63;5050079;28;44948;-63
2022/11/26 00:15:47;;;;;;;;;16.00;13.50;;;;;12.05;64.65;102347.63;5052362;28;45117;-62
2022/11/26 00:18:14;;;;;;;;;19.75;12.50;;;;;12.04;64.60;102351.16;5069860;28;45278;-63
2022/11/26 00:20:40;;;;;;;;;12.25;11.25;;;;;12.02;64.36;102344.81;5050432;28;45152;-60
2022/11/26 00:23:14;;;;;;;;;23.50;17.50;;;;;11.93;65.13;102347.09;5072270;28;45060;-59
2022/11/26 00:25:47;;;;;;;;;28.75;21.50;;;;;11.94;64.80;102352.47;5054068;28;45002;-63
2022/11/26 00:28:27;;;;;;;;;35.50;29.25;;;;;11.85;65.43;102341.31;5066480;28;45395;-62
2022/11/26 00:30:55;;;;;;;;;25.00;22.75;;;;;11.90;66.10;102360.28;5069005;28;45585;-61
2022/11/26 00:33:21;;;;;;;;;28.75;25.75;;;;;11.87;65.53;102360.16;5057202;28;45440;-61
2022/11/26 00:35:49;;;;;;;;;20.00;18.25;;;;;11.78;65.84;102344.56;5060980;28;45283;-61
2022/11/26 00:38:19;;;;;;;;;64.50;47.75;;;;;11.70;67.00;102337.94;5062305;28;45441;-61
2022/11/26 00:40:44;;;;;;;;;42.25;33.50;;;;;11.71;66.90;102339.75;5064521;28;45384;-62
2022/11/26 00:43:14;;;;;;;;;17.25;15.25;;;;;11.77;66.79;102351.66;5064978;28;45794;-62
2022/11/26 00:45:40;;;;;;;;;36.00;28.75;;;;;11.79;66.95;102357.09;5065633;28;45342;-60
2022/11/26 00:48:05;;;;;;;;;25.50;24.25;;;;;11.78;67.34;102358.88;5053949;28;46750;-61
2022/11/26 00:50:36;;;;;;;;;33.00;30.75;;;;;11.80;66.19;102354.50;5067066;28;45379;-62
2022/11/26 00:53:03;;;;;;;;;19.75;18.75;;;;;11.80;66.54;102362.53;5053483;28;45462;-62
2022/11/26 00:55:28;;;;;;;;;19.00;14.00;;;;;11.83;65.21;102359.09;5067539;28;45375;-61
2022/11/26 00:57:54;;;;;;;;;16.25;12.25;;;;;11.80;65.87;102349.13;5065830;28;45442;-62
2022/11/26 01:00:23;;;;;;;;;25.00;18.00;;;;;11.82;65.82;102361.69;5050916;28;45494;-61
2022/11/26 01:02:49;;;;;;;;;18.50;11.50;;;;;11.83;65.41;102363.50;5065003;28;45386;-61
2022/11/26 01:05:15;;;;;;;;;15.00;11.25;;;;;11.83;65.63;102367.13;5056818;28;45356;-62
2022/11/26 01:07:42;;;;;;;;;17.75;12.00;;;;;11.79;66.05;102355.31;5068671;28;46402;-62
2022/11/26 01:10:17;;;;;;;;;16.50;13.50;;;;;11.83;65.19;102363.50;5063192;28;45588;-61
2022/11/26 01:12:42;;;;;;;;;21.75;16.00;;;;;11.86;65.34;102366.34;5068793;28;45297;-62
2022/11/26 01:15:08;;;;;;;;;23.25;16.25;;;;;11.82;64.65;102369.72;5038185;28;45381;-61
2022/11/26 01:17:34;;;;;;;;;23.50;11.25;;;;;11.85;64.83;102373.47;5056452;28;45465;-61
2022/11/26 01:19:59;;;;;;;;;13.50;11.25;;;;;11.78;65.45;102363.31;5065691;28;45489;-60
2022/11/26 01:22:25;;;;;;;;;18.75;11.25;;;;;11.77;65.37;102370.41;5062543;28;45436;-60
2022/11/26 01:24:50;;;;;;;;;17.00;13.00;;;;;11.80;65.57;102378.59;5059701;28;45230;-60
2022/11/26 01:27:18;;;;;;;;;18.75;11.00;;;;;11.80;65.51;102373.25;5042147;28;46380;-60
2022/11/26 01:29:44;;;;;;;;;14.67;9.33;;;;;11.81;65.42;102366.13;5060303;28;45504;-62
2022/11/26 01:32:09;;;;;;;;;16.00;9.25;;;;;11.81;65.79;102371.47;5062069;28;49575;-62
2022/11/26 01:34:35;;;;;;;;;19.75;15.25;;;;;11.77;65.38;102353.44;5064990;28;45544;-60
2022/11/26 01:37:00;;;;;;;;;15.75;12.25;;;;;11.80;65.63;102370.56;5062267;28;48553;-61
2022/11/26 01:39:25;;;;;;;;;19.00;12.25;;;;;11.84;65.43;102365.34;5038047;28;50364;-61
2022/11/26 01:42:25;;;;;;;;;19.00;11.50;;;;;11.83;65.14;102368.88;5056936;28;52177;-61
2022/11/26 01:44:50;;;;;;;;;12.75;10.00;;;;;11.75;65.76;102353.38;5047773;28;45448;-60
2022/11/26 01:47:20;;;;;;;;;10.00;10.00;;;;;11.75;65.33;102348.00;5056465;28;45485;-60
2022/11/26 01:50:23;;;;;;;;;14.50;10.75;;;;;11.83;65.67;102367.13;5061617;28;45536;-60
2022/11/26 01:52:48;;;;;;;;;19.00;11.75;;;;;11.74;65.38;102351.53;5063579;28;45095;-62
2022/11/26 01:55:16;;;;;;;;;16.25;13.00;;;;;11.71;65.48;102337.06;5038095;28;45478;-61
2022/11/26 01:57:43;;;;;;;;;21.75;18.00;;;;;11.73;65.93;102340.72;5059522;28;45692;-62
2022/11/26 02:00:10;;;;;;;;;24.75;19.75;;;;;11.77;64.99;102374.84;5063265;28;45442;-63
2022/11/26 02:02:36;;;;;;;;;25.75;20.25;;;;;11.79;65.82;102384.78;5061958;28;45378;-61
2022/11/26 02:05:13;;;;;;;;;24.50;20.25;;;;;11.76;65.80;102376.63;5041975;28;45382;-63
2022/11/26 02:07:39;;;;;;;;;33.50;27.50;;;;;11.74;65.25;102378.28;5057462;28;45331;-62
2022/11/26 02:10:05;;;;;;;;;19.50;17.75;;;;;11.71;65.64;102375.47;5065980;28;45317;-61
2022/11/26 02:12:31;;;;;;;;;28.50;24.25;;;;;11.71;65.95;102375.47;5055704;28;45468;-62
2022/11/26 02:14:56;;;;;;;;;24.50;22.50;;;;;11.63;65.60;102360.78;5055862;28;45331;-63
2022/11/26 02:17:31;;;;;;;;;34.75;29.75;;;;;11.64;65.44;102375.13;5057014;28;46288;-64
2022/11/26 02:20:14;;;;;;;;;33.50;29.75;;;;;11.60;65.97;102368.72;5060736;28;45484;-64
2022/11/26 02:22:48;;;;;;;;;32.25;26.50;;;;;11.60;65.91;102374.97;5043179;28;45566;-61
2022/11/26 02:25:32;;;;;;;;;27.25;24.00;;;;;11.54;64.91;102374.66;5055497;28;45393;-60
2022/11/26 02:28:16;;;;;;;;;36.00;27.00;;;;;11.53;65.05;102366.56;5057761;28;45497;-62
2022/11/26 02:30:48;;;;;;;;;34.00;26.25;;;;;11.52;66.07;102357.63;5044402;28;45579;-61
2022/11/26 02:33:25;;;;;;;;;33.50;28.50;;;;;11.50;64.73;102359.31;5060373;28;45462;-62
2022/11/26 02:36:13;;;;;;;;;30.00;23.25;;;;;11.48;65.26;102360.06;5063218;28;45385;-61
2022/11/26 02:38:39;;;;;;;;;36.25;25.00;;;;;11.44;65.41;102354.56;5062679;28;45345;-61
2022/11/26 02:41:04;;;;;;;;;30.25;23.25;;;;;11.32;65.59;102347.69;5062130;28;45263;-62
2022/11/26 02:43:32;;;;;;;;;32.00;29.25;;;;;11.30;65.25;102357.41;5068662;28;45328;-61
2022/11/26 02:46:03;;;;;;;;;30.25;27.25;;;;;11.26;65.99;102377.75;5069848;28;45104;-61
2022/11/26 02:48:33;;;;;;;;;32.50;26.75;;;;;11.16;65.74;102356.72;5056267;28;45679;-61
2022/11/26 02:51:04;;;;;;;;;28.00;20.75;;;;;11.15;66.00;102365.59;5069761;28;45186;-62
2022/11/26 02:53:31;;;;;;;;;36.50;29.25;;;;;11.20;65.44;102375.69;5071269;28;44973;-60
2022/11/26 02:56:06;;;;;;;;;70.25;52.50;;;;;11.18;66.35;102372.00;5051723;28;45467;-60
2022/11/26 02:58:32;;;;;;;;;30.00;28.50;;;;;11.06;65.51;102355.34;5050739;28;48595;-61
2022/11/26 03:01:01;;;;;;;;;29.50;25.00;;;;;11.09;65.80;102368.88;5062979;28;44985;-62
2022/11/26 03:03:33;;;;;;;;;33.00;23.75;;;;;11.00;65.66;102360.38;5057164;28;45329;-62
2022/11/26 03:06:03;;;;;;;;;35.00;28.00;;;;;11.12;65.75;102377.06;5058426;28;45393;-63
2022/11/26 03:08:31;;;;;;;;;35.50;25.75;;;;;11.06;65.82;102382.09;5039088;28;47535;-61
2022/11/26 03:10:56;;;;;;;;;30.00;22.50;;;;;11.03;65.95;102376.59;5054786;28;45511;-62
2022/11/26 03:13:22;;;;;;;;;26.00;19.75;;;;;11.03;66.16;102376.59;5036575;28;45549;-61
2022/11/26 03:15:47;;;;;;;;;24.50;20.25;;;;;11.02;65.79;102383.72;5037473;28;45512;-63
2022/11/26 03:18:13;;;;;;;;;29.75;25.75;;;;;11.04;65.57;102370.41;5058335;28;45524;-61
2022/11/26 03:20:38;;;;;;;;;31.75;25.50;;;;;11.04;66.04;102378.44;5056297;28;45507;-61
2022/11/26 03:23:04;;;;;;;;;30.50;25.75;;;;;10.95;66.11;102386.88;5055789;28;45290;-60
2022/11/26 03:25:29;;;;;;;;;29.25;27.50;;;;;10.86;65.81;102371.31;5054621;28;45517;-62
2022/11/26 03:27:55;;;;;;;;;28.75;22.50;;;;;10.95;65.70;102378.88;5060714;28;46019;-61
2022/11/26 03:30:21;;;;;;;;;30.50;27.75;;;;;10.94;65.64;102377.06;5032820;28;45403;-60
2022/11/26 03:32:46;;;;;;;;;33.50;25.00;;;;;10.91;65.86;102371.53;5034364;28;45380;-61
2022/11/26 03:35:11;;;;;;;;;33.50;30.25;;;;;10.85;65.76;102368.53;5036876;28;45504;-61
2022/11/26 03:37:37;;;;;;;;;29.50;25.25;;;;;10.90;65.82;102383.06;5047869;28;46502;-61
2022/11/26 03:40:03;;;;;;;;;28.50;24.75;;;;;10.80;65.70;102354.94;5034058;28;45354;-61
2022/11/26 03:42:29;;;;;;;;;31.25;25.50;;;;;10.75;65.73;102356.47;5034022;28;45526;-61
2022/11/26 03:44:54;;;;;;;;;27.25;22.00;;;;;10.77;65.73;102369.91;5039964;28;45541;-60
2022/11/26 03:47:19;;;;;;;;;26.75;24.00;;;;;10.73;65.78;102366.16;5033815;28;45370;-62
2022/11/26 03:49:45;;;;;;;;;29.00;25.25;;;;;10.82;65.83;102380.03;5035273;28;46722;-61
2022/11/26 03:52:10;;;;;;;;;32.00;22.00;;;;;10.82;65.61;102390.72;5038785;28;45516;-60
2022/11/26 03:54:36;;;;;;;;;27.50;26.75;;;;;10.84;66.00;102375.66;5034183;28;45556;-62
2022/11/26 03:57:01;;;;;;;;;31.00;23.75;;;;;10.79;65.66;102366.50;5033756;28;58175;-62
2022/11/26 03:59:26;;;;;;;;;35.25;27.25;;;;;10.80;65.93;102365.63;5040596;28;45350;-62
2022/11/26 04:01:52;;;;;;;;;37.50;27.50;;;;;10.76;65.81;102366.31;5038014;28;45447;-61
2022/11/26 04:04:17;;;;;;;;;26.50;23.00;;;;;10.77;65.71;102369.91;5036287;28;45363;-61
2022/11/26 04:06:42;;;;;;;;;28.50;23.75;;;;;10.87;65.77;102382.91;5035977;28;46953;-61
2022/11/26 04:09:08;;;;;;;;;25.50;24.75;;;;;10.85;65.98;102385.50;5036702;28;45428;-62
2022/11/26 04:11:33;;;;;;;;;23.25;17.25;;;;;10.87;65.70;102397.22;5039630;28;45384;-62
2022/11/26 04:13:58;;;;;;;;;33.00;22.25;;;;;10.85;66.02;102390.84;5038392;28;45573;-63
2022/11/26 04:16:24;;;;;;;;;32.75;27.00;;;;;10.73;66.12;102384.88;5038596;28;47126;-63
2022/11/26 04:18:49;;;;;;;;;26.50;21.75;;;;;10.75;66.01;102383.19;5036237;28;45559;-62
2022/11/26 04:21:14;;;;;;;;;28.25;20.50;;;;;10.76;66.20;102387.72;5039356;28;45654;-61
2022/11/26 04:23:40;;;;;;;;;23.25;20.75;;;;;10.81;66.35;102386.19;5036176;28;45504;-62
2022/11/26 04:26:05;;;;;;;;;24.25;22.50;;;;;10.74;65.68;102369.75;5053837;28;45470;-61
2022/11/26 04:28:30;;;;;;;;;22.25;18.50;;;;;10.73;65.92;102379.53;5053693;28;47992;-61
2022/11/26 04:30:56;;;;;;;;;26.00;23.25;;;;;10.58;65.79;102352.00;5066063;28;45132;-61
2022/11/26 04:33:21;;;;;;;;;18.25;15.00;;;;;10.68;65.93;102360.56;5051316;28;45327;-61
2022/11/26 04:35:49;;;;;;;;;25.75;22.25;;;;;10.72;65.61;102385.69;5069658;28;45919;-62
2022/11/26 04:38:14;;;;;;;;;29.50;26.50;;;;;10.61;66.28;102385.16;5070910;28;45370;-61
2022/11/26 04:40:39;;;;;;;;;27.75;22.00;;;;;10.55;66.00;102371.47;5068881;28;45477;-61
2022/11/26 04:43:05;;;;;;;;;29.25;20.25;;;;;10.61;66.57;102384.22;5062986;28;45464;-61
2022/11/26 04:45:30;;;;;;;;;27.00;18.50;;;;;10.66;66.28;102383.63;5060012;28;45320;-60
2022/11/26 04:47:55;;;;;;;;;26.00;22.75;;;;;10.61;66.03;102393.19;5066213;28;48973;-61
2022/11/26 04:50:21;;;;;;;;;23.25;22.00;;;;;10.48;66.26;102367.56;5069672;28;45506;-61
2022/11/26 04:52:47;;;;;;;;;24.25;22.00;;;;;10.58;66.45;102376.06;5068203;28;45191;-61
2022/11/26 04:55:13;;;;;;;;;25.00;19.75;;;;;10.66;66.01;102391.66;5071409;28;45817;-61
2022/11/26 04:57:38;;;;;;;;;23.75;19.75;;;;;10.62;66.19;102392.31;5047541;28;45450;-61
2022/11/26 05:00:05;;;;;;;;;27.00;20.00;;;;;10.45;66.01;102364.72;5061222;28;45773;-62
2022/11/26 05:02:31;;;;;;;;;22.50;18.50;;;;;10.53;66.10;102385.59;5038640;28;45653;-60
2022/11/26 05:04:56;;;;;;;;;35.25;24.00;;;;;10.51;66.49;102385.53;5055966;28;46091;-61
2022/11/26 05:07:21;;;;;;;;;26.75;24.00;;;;;10.42;66.57;102403.72;5061780;28;45459;-62
2022/11/26 05:09:47;;;;;;;;;25.75;25.00;;;;;10.29;66.74;102383.41;5061414;28;45356;-60
2022/11/26 05:12:12;;;;;;;;;24.50;21.50;;;;;10.38;66.61;102405.31;5059375;28;45350;-61
2022/11/26 05:14:37;;;;;;;;;29.75;26.75;;;;;10.35;66.83;102396.22;5059167;28;45430;-61
2022/11/26 05:17:03;;;;;;;;;27.25;24.50;;;;;10.46;66.54;102409.31;5058239;28;45358;-62
2022/11/26 05:19:28;;;;;;;;;28.00;24.25;;;;;10.42;66.94;102411.72;5057302;28;45346;-59
2022/11/26 05:21:53;;;;;;;;;29.25;27.50;;;;;10.33;66.74;102409.50;5057616;28;45333;-61
2022/11/26 05:24:18;;;;;;;;;31.75;24.75;;;;;10.19;66.79;102419.38;5056849;28;51119;-62
2022/11/26 05:26:44;;;;;;;;;29.75;23.75;;;;;10.11;66.93;102410.03;5058264;28;45526;-60
2022/11/26 05:29:09;;;;;;;;;26.75;20.75;;;;;10.06;67.34;102411.53;5056834;28;45435;-60
2022/11/26 05:31:34;;;;;;;;;29.25;21.75;;;;;10.19;67.24;102429.16;5055713;28;45346;-60
2022/11/26 05:34:00;;;;;;;;;21.50;19.50;;;;;10.21;67.12;102430.16;5066207;28;45834;-61
2022/11/26 05:36:25;;;;;;;;;26.00;24.25;;;;;10.20;67.32;102420.31;5070412;28;45467;-66
2022/11/26 05:38:50;;;;;;;;;25.25;21.00;;;;;10.26;66.87;102429.59;5062942;28;45382;-60
2022/11/26 05:41:16;;;;;;;;;23.00;19.25;;;;;10.20;66.81;102415.88;5057311;28;45484;-61
2022/11/26 05:43:41;;;;;;;;;39.25;26.25;;;;;10.15;67.16;102399.59;5063269;28;46332;-61
2022/11/26 05:46:07;;;;;;;;;28.00;21.50;;;;;10.22;66.93;102419.56;5055574;28;45677;-63
2022/11/26 05:48:33;;;;;;;;;24.50;21.00;;;;;10.32;66.68;102432.59;5058733;28;45405;-61
2022/11/26 05:50:59;;;;;;;;;22.25;21.00;;;;;10.35;66.43;102433.63;5037968;28;45467;-61
2022/11/26 05:53:25;;;;;;;;;23.75;18.25;;;;;10.38;65.97;102448.06;5055396;28;45971;-61
2022/11/26 05:55:50;;;;;;;;;27.75;20.50;;;;;10.28;65.79;102424.31;5040582;28;45709;-61
2022/11/26 05:58:16;;;;;;;;;20.25;19.00;;;;;10.33;66.21;102426.44;5056961;28;45406;-61
2022/11/26 06:00:41;;;;;;;;;26.00;22.50;;;;;10.41;66.21;102437.56;5059055;28;45398;-61
2022/11/26 06:03:06;;;;;;;;;16.25;13.75;;;;;10.40;66.33;102437.47;5039212;28;47405;-62
2022/11/26 06:05:32;;;;;;;;;20.25;17.75;;;;;10.30;66.37;102430.66;5064249;28;51207;-62
2022/11/26 06:07:57;;;;;;;;;20.50;17.25;;;;;10.41;66.95;102448.25;5059056;28;45524;-63
2022/11/26 06:10:22;;;;;;;;;26.75;22.25;;;;;10.40;66.19;102449.06;5038259;28;45445;-63
2022/11/26 06:12:48;;;;;;;;;26.75;19.75;;;;;10.38;66.13;102466.78;5037737;28;47355;-63
2022/11/26 06:15:13;;;;;;;;;25.00;20.75;;;;;10.12;66.18;102435.91;5059104;28;45429;-63
2022/11/26 06:17:38;;;;;;;;;24.25;19.50;;;;;10.26;66.81;102468.72;5056611;28;45237;-62
2022/11/26 06:20:04;;;;;;;;;21.25;17.75;;;;;10.32;66.75;102487.78;5055477;28;45224;-62
2022/11/26 06:22:34;;;;;;;;;26.00;21.00;;;;;10.31;66.65;102473.50;5059059;28;46535;-60
2022/11/26 06:24:59;;;;;;;;;34.00;30.50;;;;;10.41;66.26;102484.69;5063515;28;45486;-61
2022/11/26 06:27:25;;;;;;;;;33.75;25.75;;;;;10.33;66.31;102477.19;5058272;28;45780;-62
2022/11/26 06:29:50;;;;;;;;;23.25;20.50;;;;;10.42;66.55;102482.13;5045330;28;45086;-62
2022/11/26 06:32:15;;;;;;;;;27.50;20.75;;;;;10.41;66.00;102468.66;5043647;28;45898;-62
2022/11/26 06:34:41;;;;;;;;;25.25;22.00;;;;;10.31;66.20;102446.78;5049549;28;45266;-62
2022/11/26 06:37:06;;;;;;;;;19.25;19.25;;;;;10.40;66.22;102464.19;5049796;28;45075;-62
2022/11/26 06:39:31;;;;;;;;;22.50;19.25;;;;;10.27;65.96;102460.78;5043853;28;45428;-61
2022/11/26 06:41:57;;;;;;;;;24.00;23.25;;;;;10.25;66.27;102474.91;5037175;28;45519;-62
2022/11/26 06:44:22;;;;;;;;;24.25;21.50;;;;;10.19;66.47;102483.47;5033099;28;45545;-61
2022/11/26 06:46:47;;;;;;;;;25.75;18.00;;;;;10.21;66.66;102483.56;5034537;28;45486;-60
2022/11/26 06:49:13;;;;;;;;;21.50;21.50;;;;;10.05;66.64;102453.34;5039986;28;45610;-62
2022/11/26 06:51:38;;;;;;;;;64.75;48.50;;;;;10.26;65.99;102479.41;5034017;28;45439;-62
2022/11/26 06:54:04;;;;;;;;;29.50;23.75;;;;;10.30;66.19;102498.34;5038398;28;45370;-61
2022/11/26 06:56:29;;;;;;;;;27.75;23.25;;;;;10.26;65.81;102487.41;5039941;28;45423;-61
2022/11/26 06:58:54;;;;;;;;;30.25;27.00;;;;;10.30;65.75;102506.38;5036958;28;45476;-61
2022/11/26 07:01:23;;;;;;;;;20.25;18.00;;;;;10.29;65.93;102512.53;5040535;28;45350;-61
2022/11/26 07:03:48;;;;;;;;;23.50;23.50;;;;;10.29;65.74;102508.97;5034708;28;45358;-60
2022/11/26 07:06:25;;;;;;;;;34.75;25.00;;;;;10.30;66.09;102497.44;5034401;28;45446;-60
2022/11/26 07:08:52;;;;;;;;;20.25;18.75;;;;;10.25;66.27;102488.25;5037125;28;45412;-60
2022/11/26 07:11:18;;;;;;;;;17.75;15.00;;;;;10.20;66.04;102488.00;5037556;28;45955;-63
2022/11/26 07:13:43;;;;;;;;;24.50;23.25;;;;;10.13;66.17;102486.75;5049080;28;45036;-62
2022/11/26 07:16:09;;;;;;;;;28.50;19.75;;;;;10.11;66.39;102503.50;5044582;28;45571;-61
2022/11/26 07:18:35;;;;;;;;;22.75;19.00;;;;;10.02;66.20;102495.91;5034748;28;45557;-62
2022/11/26 07:21:09;;;;;;;;;27.00;19.00;;;;;10.10;66.51;102518.63;5038616;28;45950;-61
2022/11/26 07:23:35;;;;;;;;;25.75;23.50;;;;;9.95;66.54;102493.72;5040457;28;45337;-62
2022/11/26 07:26:01;;;;;;;;;29.50;23.75;;;;;10.05;65.99;102520.09;5039858;28;45274;-60
2022/11/26 07:28:28;;;;;;;;;27.75;24.00;;;;;9.95;66.66;102515.09;5047080;28;45278;-62
2022/11/26 07:30:53;;;;;;;;;28.25;25.75;;;;;9.80;66.45;102508.84;5051203;28;45826;-61
2022/11/26 07:33:19;;;;;;;;;25.25;22.50;;;;;9.88;66.08;102526.22;5055852;28;45533;-63
2022/11/26 07:35:44;;;;;;;;;24.75;22.50;;;;;9.88;65.94;102528.88;5058921;28;45499;-62
2022/11/26 07:38:09;;;;;;;;;25.75;21.25;;;;;9.85;66.30;102520.69;5068275;27;45641;-62
2022/11/26 07:40:35;;;;;;;;;23.00;18.25;;;;;9.91;66.36;102518.38;5058330;28;46701;-64
2022/11/26 07:43:00;;;;;;;;;21.25;16.75;;;;;9.82;66.32;102500.09;5053695;28;45498;-61
2022/11/26 07:45:25;;;;;;;;;25.50;21.50;;;;;9.82;66.67;102499.19;5061784;28;45244;-62
2022/11/26 07:47:51;;;;;;;;;24.00;20.50;;;;;9.70;66.42;102500.31;5054635;28;45581;-62
2022/11/26 07:50:16;;;;;;;;;30.25;25.00;;;;;9.72;66.38;102495.97;5053940;28;46170;-62
2022/11/26 07:52:42;;;;;;;;;22.25;18.50;;;;;9.71;66.63;102485.22;5059325;28;45693;-62
2022/11/26 07:55:07;;;;;;;;;27.50;22.00;;;;;9.54;66.72;102471.81;5058156;28;45303;-65
2022/11/26 07:57:33;;;;;;;;;23.75;20.50;;;;;9.76;66.59;102502.41;5054987;28;45538;-64
2022/11/26 07:59:58;;;;;;;;;31.75;22.75;;;;;9.70;66.56;102488.69;5055954;28;45397;-63
2022/11/26 08:02:23;;;;;;;;;24.50;20.50;;;;;9.63;66.36;102483.84;5045832;28;45383;-64
2022/11/26 08:04:49;;;;;;;;;23.75;22.25;;;;;9.70;67.21;102497.66;5059688;28;45250;-63
2022/11/26 08:07:14;;;;;;;;;25.00;19.25;;;;;9.64;66.18;102493.69;5036479;28;45328;-63
2022/11/26 08:09:40;;;;;;;;;30.00;24.25;;;;;9.54;66.48;102489.56;5043908;28;48035;-62
2022/11/26 08:12:05;;;;;;;;;16.50;16.50;;;;;9.59;67.52;102505.00;5058176;28;45462;-61
2022/11/26 08:14:31;;;;;;;;;22.00;18.75;;;;;9.60;67.06;102513.94;5059851;28;45569;-63
2022/11/26 08:16:56;;;;;;;;;29.75;22.25;;;;;9.66;66.51;102516.06;5059159;28;45327;-65
2022/11/26 08:19:21;;;;;;;;;21.75;17.50;;;;;9.76;67.08;102530.00;5062913;28;45312;-63
2022/11/26 08:21:47;;;;;;;;;26.25;21.75;;;;;9.78;66.09;102535.44;5055986;28;45321;-63
2022/11/26 08:24:15;;;;;;;;;29.75;25.25;;;;;9.82;66.51;102536.56;5036342;28;48025;-63
2022/11/26 08:26:41;;;;;;;;;24.75;21.00;;;;;9.81;66.05;102530.28;5056648;28;45473;-60
2022/11/26 08:29:07;;;;;;;;;23.25;21.00;;;;;9.62;65.46;102493.63;5054078;28;45418;-63
2022/11/26 08:31:33;;;;;;;;;22.00;20.00;;;;;9.80;65.98;102536.47;5059153;28;45285;-62
2022/11/26 08:33:59;;;;;;;;;23.25;18.25;;;;;9.65;65.13;102531.16;5063242;28;45517;-63
2022/11/26 08:36:26;;;;;;;;;20.00;17.75;;;;;9.70;66.34;102537.69;5059028;28;45358;-62
2022/11/26 08:38:52;;;;;;;;;26.75;23.50;;;;;9.65;66.12;102519.53;5067739;28;45431;-64
2022/11/26 08:41:17;;;;;;;;;23.50;20.75;;;;;9.60;66.88;102524.59;5044172;28;45066;-62
2022/11/26 08:43:42;;;;;;;;;24.50;20.25;;;;;9.64;67.09;102520.38;5047674;28;45501;-63
2022/11/26 08:46:09;;;;;;;;;17.75;16.00;;;;;9.60;66.51;102495.25;5071935;28;45184;-63
2022/11/26 08:48:35;;;;;;;;;21.00;17.50;;;;;9.75;66.46;102508.56;5072384;28;45903;-64
2022/11/26 08:51:07;;;;;;;;;19.25;18.75;;;;;9.65;66.40;102506.19;5062176;28;45283;-62
2022/11/26 08:53:33;;;;;;;;;22.75;20.25;;;;;9.75;66.60;102527.25;5059355;28;45377;-61
2022/11/26 08:56:03;;;;;;;;;29.25;24.00;;;;;9.82;65.82;102525.88;5057221;28;45356;-61
2022/11/26 08:58:28;;;;;;;;;24.75;22.00;;;;;9.80;66.20;102516.84;5057137;28;45491;-63
2022/11/26 09:00:54;;;;;;;;;25.25;23.00;;;;;9.92;66.45;102526.50;5044921;28;45426;-63
2022/11/26 09:03:20;;;;;;;;;33.50;24.75;;;;;9.92;66.29;102523.81;5057667;28;45527;-64
2022/11/26 09:05:45;;;;;;;;;24.00;21.25;;;;;9.98;65.67;102533.91;5038880;28;45557;-63
2022/11/26 09:08:10;;;;;;;;;27.75;26.00;;;;;9.88;65.31;102529.84;5058127;28;45518;-63
2022/11/26 09:10:36;;;;;;;;;28.00;22.00;;;;;9.84;65.71;102525.13;5046051;28;44989;-63
2022/11/26 09:13:01;;;;;;;;;27.00;21.25;;;;;9.95;65.78;102537.34;5057056;28;45298;-63
2022/11/26 09:15:27;;;;;;;;;24.50;22.25;;;;;9.95;66.28;102515.09;5061059;28;45358;-63
2022/11/26 09:17:52;;;;;;;;;34.50;27.00;;;;;10.06;66.00;102532.59;5057889;28;45699;-62
2022/11/26 09:20:18;;;;;;;;;27.50;23.50;;;;;9.74;65.49;102480.97;5059751;28;44954;-63
2022/11/26 09:22:43;;;;;;;;;28.75;24.00;;;;;9.57;66.06;102445.31;5057076;28;45449;-64
2022/11/26 09:25:08;;;;;;;;;32.50;28.75;;;;;10.15;65.75;102541.16;5071097;28;45319;-60
2022/11/26 09:27:34;;;;;;;;;27.25;21.00;;;;;10.18;66.58;102520.78;5073877;28;46184;-63
2022/11/26 09:29:59;;;;;;;;;31.25;28.00;;;;;10.19;66.40;102531.56;5054436;28;45103;-61
2022/11/26 09:32:24;;;;;;;;;27.00;25.00;;;;;9.95;67.05;102481.28;5073295;28;45097;-63
2022/11/26 09:34:51;;;;;;;;;27.50;23.00;;;;;10.19;66.54;102519.97;5073749;28;45113;-61
2022/11/26 09:37:17;;;;;;;;;30.00;25.25;;;;;10.17;66.27;102524.31;5072571;28;46160;-63
2022/11/26 09:39:43;;;;;;;;;24.00;24.00;;;;;10.07;66.61;102531.78;5072585;28;45189;-64
2022/11/26 09:42:44;;;;;;;;;42.75;25.50;;;;;10.19;67.28;102533.31;5073416;28;44933;-61
2022/11/26 09:45:37;;;;;;;;;36.50;29.25;;;;;10.14;67.22;102517.94;5072000;28;44961;-63
2022/11/26 09:48:04;;;;;;;;;28.00;23.25;;;;;10.19;67.11;102522.63;5050310;28;47878;-62
2022/11/26 09:50:34;;;;;;;;;27.75;22.50;;;;;10.27;67.15;102524.00;5071765;28;45480;-61
2022/11/26 09:53:18;;;;;;;;;26.00;26.00;;;;;10.28;67.23;102510.72;5051323;28;45317;-61
2022/11/26 09:55:48;;;;;;;;;31.50;26.50;;;;;10.35;66.72;102505.75;5045061;28;45012;-62
2022/11/26 09:58:20;;;;;;;;;26.00;23.00;;;;;10.27;66.74;102492.84;5072606;28;45824;-63
2022/11/26 10:00:52;;;;;;;;;25.50;24.50;;;;;10.36;67.07;102495.16;5073605;28;44911;-61
2022/11/26 10:03:23;;;;;;;;;39.25;29.25;;;;;10.41;66.82;102504.34;5073110;28;45198;-64
2022/11/26 10:05:52;;;;;;;;;31.00;28.00;;;;;10.45;67.05;102503.66;5071067;28;45436;-63
2022/11/26 10:08:48;;;;;;;;;29.75;22.75;;;;;10.50;67.19;102518.19;5072986;28;45265;-64
2022/11/26 10:11:42;;;;;;;;;32.50;26.00;;;;;10.49;66.95;102510.09;5067278;28;45459;-61
2022/11/26 10:14:24;;;;;;;;;22.75;21.00;;;;;10.38;67.25;102493.50;5072165;28;45115;-62
2022/11/26 10:17:08;;;;;;;;;36.00;29.50;;;;;10.44;67.26;102508.91;5073168;28;45133;-60
2022/11/26 10:19:50;;;;;;;;;28.50;22.25;;;;;10.43;67.15;102507.09;5072612;28;45919;-61
2022/11/26 10:22:33;;;;;;;;;31.50;24.25;;;;;10.46;68.04;102500.16;5072238;28;45169;-61
2022/11/26 10:25:01;;;;;;;;;36.75;29.50;;;;;10.48;67.26;102490.47;5073331;28;44997;-63
2022/11/26 10:27:32;;;;;;;;;26.75;21.00;;;;;10.63;67.57;102510.88;5072563;28;45000;-63
2022/11/26 10:30:12;;;;;;;;;23.75;19.50;;;;;10.65;67.28;102509.19;5067256;28;45940;-60
2022/11/26 10:32:40;;;;;;;;;23.25;19.75;;;;;10.65;66.83;102479.78;5053623;28;45082;-62
2022/11/26 10:35:06;;;;;;;;;26.25;19.75;;;;;10.75;67.08;102479.44;5072919;28;45157;-62
2022/11/26 10:37:31;;;;;;;;;31.00;25.00;;;;;10.81;66.64;102489.56;5072653;28;45074;-62
2022/11/26 10:40:23;;;;;;;;;38.00;27.25;;;;;10.92;66.95;102479.41;5065085;28;45718;-61
2022/11/26 10:43:02;;;;;;;;;35.25;25.75;;;;;10.96;66.20;102465.38;5040395;28;45668;-62
2022/11/26 10:45:39;;;;;;;;;39.00;31.25;;;;;10.99;66.31;102470.91;5057000;28;45474;-63
2022/11/26 10:48:18;;;;;;;;;37.75;29.50;;;;;11.00;66.63;102486.09;5057224;28;45342;-62
2022/11/26 10:50:54;;;;;;;;;27.00;22.25;;;;;10.98;66.63;102487.78;5065198;28;45249;-64
2022/11/26 10:53:22;;;;;;;;;27.75;24.50;;;;;10.95;66.99;102472.47;5036655;28;45446;-64
2022/11/26 10:55:48;;;;;;;;;21.75;20.50;;;;;10.90;66.44;102465.06;5058564;28;45343;-63
2022/11/26 10:58:21;;;;;;;;;25.75;21.75;;;;;10.95;67.02;102479.56;5054687;28;45497;-61
2022/11/26 11:00:49;;;;;;;;;31.00;26.75;;;;;11.00;66.12;102478.97;5039060;28;46986;-60
2022/11/26 11:03:20;;;;;;;;;45.00;24.75;;;;;10.99;66.89;102484.28;5060019;28;45436;-61
2022/11/26 11:05:46;;;;;;;;;31.00;25.75;;;;;10.54;66.79;102420.41;5056242;28;45421;-62
2022/11/26 11:08:31;;;;;;;;;28.25;24.50;;;;;11.02;66.82;102489.75;5056413;28;45483;-64
2022/11/26 11:11:00;;;;;;;;;32.75;26.25;;;;;11.08;66.53;102487.41;5056091;28;46112;-62
2022/11/26 11:13:43;;;;;;;;;34.00;30.50;;;;;11.07;66.40;102486.50;5055013;28;45637;-62
2022/11/26 11:16:11;;;;;;;;;23.00;20.75;;;;;11.09;66.91;102488.31;5037451;28;45403;-61